sensor_id;sensor_type;location;lat;lon;timestamp;pressure;altitude;pressure_sealevel;temperature;humidity
42691;BME280;28306;55.744;37.578;2022-10-18T00:01:27;100408.22;;;22.05;38.07
42691;BME280;28306;55.744;37.578;2022-10-18T00:03:52;100428.31;;;22.16;38.11
42691;BME280;28306;55.744;37.578;2022-10-18T00:06:18;100428.53;;;22.14;38.08
42691;BME280;28306;55.744;37.578;2022-10-18T00:08:43;100421.00;;;22.16;38.21
42691;BME280;28306;55.744;37.578;2022-10-18T00:11:09;100414.78;;;22.16;38.18
42691;BME280;28306;55.744;37.578;2022-10-18T00:13:35;100414.78;;;22.16;38.10
42691;BME280;28306;55.744;37.578;2022-10-18T00:16:03;100410.63;;;22.13;38.26
42691;BME280;28306;55.744;37.578;2022-10-18T00:18:29;100420.66;;;22.12;38.24
42691;BME280;28306;55.744;37.578;2022-10-18T00:21:04;100400.00;;;22.11;38.06
42691;BME280;28306;55.744;37.578;2022-10-18T00:23:31;100389.50;;;22.03;38.19
42691;BME280;28306;55.744;37.578;2022-10-18T00:26:03;100403.09;;;22.15;38.15
42691;BME280;28306;55.744;37.578;2022-10-18T00:28:30;100393.31;;;22.14;38.08
42691;BME280;28306;55.744;37.578;2022-10-18T00:30:56;100393.09;;;22.16;38.10
42691;BME280;28306;55.744;37.578;2022-10-18T00:33:22;100389.78;;;22.13;38.04
42691;BME280;28306;55.744;37.578;2022-10-18T00:35:47;100385.53;;;22.18;38.06
42691;BME280;28306;55.744;37.578;2022-10-18T00:38:13;100381.78;;;22.19;38.17
42691;BME280;28306;55.744;37.578;2022-10-18T00:40:39;100383.44;;;22.20;37.91
42691;BME280;28306;55.744;37.578;2022-10-18T00:43:04;100369.28;;;22.18;38.03
42691;BME280;28306;55.744;37.578;2022-10-18T00:45:30;100360.56;;;22.16;37.72
42691;BME280;28306;55.744;37.578;2022-10-18T00:47:59;100350.19;;;22.12;37.83
42691;BME280;28306;55.744;37.578;2022-10-18T00:50:29;100346.31;;;22.20;37.99
42691;BME280;28306;55.744;37.578;2022-10-18T00:52:57;100338.75;;;22.10;37.95
42691;BME280;28306;55.744;37.578;2022-10-18T00:55:24;100354.69;;;22.19;38.03
42691;BME280;28306;55.744;37.578;2022-10-18T00:57:50;100350.94;;;22.20;38.04
42691;BME280;28306;55.744;37.578;2022-10-18T01:00:17;100355.72;;;22.18;37.73
42691;BME280;28306;55.744;37.578;2022-10-18T01:02:44;100321.28;;;22.06;37.85
42691;BME280;28306;55.744;37.578;2022-10-18T01:05:13;100326.03;;;22.11;38.24
42691;BME280;28306;55.744;37.578;2022-10-18T01:07:50;100337.97;;;22.22;37.85
42691;BME280;28306;55.744;37.578;2022-10-18T01:21:33;100344.31;;;22.16;37.96
42691;BME280;28306;55.744;37.578;2022-10-18T01:32:25;100340.13;;;22.01;37.94
42691;BME280;28306;55.744;37.578;2022-10-18T01:34:57;100334.59;;;22.08;37.98
42691;BME280;28306;55.744;37.578;2022-10-18T01:37:24;100316.66;;;21.95;38.19
42691;BME280;28306;55.744;37.578;2022-10-18T01:39:54;100335.19;;;22.10;37.86
42691;BME280;28306;55.744;37.578;2022-10-18T01:42:21;100333.91;;;22.12;37.91
42691;BME280;28306;55.744;37.578;2022-10-18T01:44:49;100318.59;;;22.06;37.90
42691;BME280;28306;55.744;37.578;2022-10-18T01:47:17;100326.16;;;22.16;38.01
42691;BME280;28306;55.744;37.578;2022-10-18T01:49:44;100325.91;;;22.18;37.88
42691;BME280;28306;55.744;37.578;2022-10-18T01:52:14;100323.91;;;22.13;37.85
42691;BME280;28306;55.744;37.578;2022-10-18T01:54:43;100318.00;;;22.16;37.88
42691;BME280;28306;55.744;37.578;2022-10-18T01:57:33;100311.91;;;22.21;37.91
42691;BME280;28306;55.744;37.578;2022-10-18T02:10:41;100294.09;;;22.13;37.63
42691;BME280;28306;55.744;37.578;2022-10-18T02:13:14;100302.59;;;22.17;37.80
42691;BME280;28306;55.744;37.578;2022-10-18T02:15:45;100298.81;;;22.18;37.80
42691;BME280;28306;55.744;37.578;2022-10-18T02:18:19;100288.81;;;22.18;37.77
42691;BME280;28306;55.744;37.578;2022-10-18T02:20:47;100297.19;;;22.17;37.90
42691;BME280;28306;55.744;37.578;2022-10-18T02:23:14;100301.41;;;22.12;37.85
42691;BME280;28306;55.744;37.578;2022-10-18T02:25:42;100281.94;;;22.04;37.85
42691;BME280;28306;55.744;37.578;2022-10-18T02:28:08;100289.75;;;22.12;37.85
42691;BME280;28306;55.744;37.578;2022-10-18T02:30:56;100295.28;;;22.17;37.94
42691;BME280;28306;55.744;37.578;2022-10-18T02:33:37;100286.34;;;22.17;37.89
42691;BME280;28306;55.744;37.578;2022-10-18T02:36:14;100283.88;;;22.15;37.87
42691;BME280;28306;55.744;37.578;2022-10-18T02:38:44;100261.91;;;22.05;38.09
42691;BME280;28306;55.744;37.578;2022-10-18T02:41:10;100269.34;;;22.09;38.15
42691;BME280;28306;55.744;37.578;2022-10-18T02:43:36;100251.91;;;22.05;37.96
42691;BME280;28306;55.744;37.578;2022-10-18T02:46:02;100259.69;;;22.13;38.12
42691;BME280;28306;55.744;37.578;2022-10-18T02:48:28;100267.38;;;22.17;37.81
42691;BME280;28306;55.744;37.578;2022-10-18T02:50:54;100250.38;;;22.09;37.76
42691;BME280;28306;55.744;37.578;2022-10-18T02:53:19;100247.44;;;22.11;37.99
42691;BME280;28306;55.744;37.578;2022-10-18T02:55:45;100238.03;;;22.13;37.75
42691;BME280;28306;55.744;37.578;2022-10-18T02:58:10;100248.53;;;22.22;37.79
42691;BME280;28306;55.744;37.578;2022-10-18T03:00:36;100239.56;;;22.21;37.84
42691;BME280;28306;55.744;37.578;2022-10-18T03:03:01;100233.91;;;22.23;37.85
42691;BME280;28306;55.744;37.578;2022-10-18T03:05:27;100228.25;;;22.24;37.78
42691;BME280;28306;55.744;37.578;2022-10-18T03:07:55;100219.16;;;22.19;37.71
42691;BME280;28306;55.744;37.578;2022-10-18T03:10:21;100229.31;;;22.23;37.70
42691;BME280;28306;55.744;37.578;2022-10-18T03:12:47;100224.25;;;22.15;37.68
42691;BME280;28306;55.744;37.578;2022-10-18T03:15:12;100200.56;;;22.10;37.88
42691;BME280;28306;55.744;37.578;2022-10-18T03:17:38;100215.88;;;22.17;37.80
42691;BME280;28306;55.744;37.578;2022-10-18T03:20:04;100198.53;;;22.06;37.75
42691;BME280;28306;55.744;37.578;2022-10-18T03:22:30;100206.66;;;22.18;37.70
42691;BME280;28306;55.744;37.578;2022-10-18T03:24:55;100197.50;;;22.19;37.80
42691;BME280;28306;55.744;37.578;2022-10-18T03:27:21;100183.22;;;22.11;37.90
42691;BME280;28306;55.744;37.578;2022-10-18T03:29:46;100182.16;;;22.12;37.91
42691;BME280;28306;55.744;37.578;2022-10-18T03:32:12;100181.34;;;22.12;37.84
42691;BME280;28306;55.744;37.578;2022-10-18T03:34:37;100182.63;;;22.09;37.95
42691;BME280;28306;55.744;37.578;2022-10-18T03:37:03;100168.50;;;22.07;38.06
42691;BME280;28306;55.744;37.578;2022-10-18T03:39:28;100174.25;;;22.11;38.02
42691;BME280;28306;55.744;37.578;2022-10-18T03:41:54;100167.19;;;22.10;37.92
42691;BME280;28306;55.744;37.578;2022-10-18T03:44:20;100165.78;;;22.07;37.84
42691;BME280;28306;55.744;37.578;2022-10-18T03:46:45;100163.44;;;22.11;38.00
42691;BME280;28306;55.744;37.578;2022-10-18T03:49:11;100162.84;;;22.09;37.91
42691;BME280;28306;55.744;37.578;2022-10-18T03:51:36;100153.63;;;22.10;37.69
42691;BME280;28306;55.744;37.578;2022-10-18T03:54:02;100098.25;;;21.82;37.88
42691;BME280;28306;55.744;37.578;2022-10-18T03:56:28;100132.81;;;22.10;37.97
42691;BME280;28306;55.744;37.578;2022-10-18T03:58:53;100132.44;;;22.07;37.93
42691;BME280;28306;55.744;37.578;2022-10-18T04:01:19;100131.25;;;22.14;37.84
42691;BME280;28306;55.744;37.578;2022-10-18T04:03:44;100127.16;;;22.12;37.83
42691;BME280;28306;55.744;37.578;2022-10-18T04:06:10;100135.63;;;22.16;37.87
42691;BME280;28306;55.744;37.578;2022-10-18T04:08:36;100122.53;;;22.12;37.64
42691;BME280;28306;55.744;37.578;2022-10-18T04:11:08;100117.59;;;22.09;37.92
42691;BME280;28306;55.744;37.578;2022-10-18T04:13:35;100131.03;;;22.16;37.69
42691;BME280;28306;55.744;37.578;2022-10-18T04:16:01;100114.75;;;22.16;37.85
42691;BME280;28306;55.744;37.578;2022-10-18T04:18:26;100098.84;;;22.08;37.85
42691;BME280;28306;55.744;37.578;2022-10-18T04:20:52;100105.81;;;22.16;37.83
42691;BME280;28306;55.744;37.578;2022-10-18T04:23:17;100107.72;;;22.15;37.84
42691;BME280;28306;55.744;37.578;2022-10-18T04:25:43;100113.13;;;22.15;37.95
42691;BME280;28306;55.744;37.578;2022-10-18T04:28:08;100107.94;;;22.13;37.77
42691;BME280;28306;55.744;37.578;2022-10-18T04:30:34;100102.06;;;22.17;37.95
42691;BME280;28306;55.744;37.578;2022-10-18T04:33:00;100104.75;;;22.17;37.86
42691;BME280;28306;55.744;37.578;2022-10-18T04:35:25;100079.78;;;22.03;37.84
42691;BME280;28306;55.744;37.578;2022-10-18T04:37:53;100089.22;;;22.12;37.89
42691;BME280;28306;55.744;37.578;2022-10-18T04:40:19;100091.22;;;22.17;37.85
42691;BME280;28306;55.744;37.578;2022-10-18T04:42:45;100093.31;;;22.14;37.77
42691;BME280;28306;55.744;37.578;2022-10-18T04:45:11;100071.19;;;22.06;37.95
42691;BME280;28306;55.744;37.578;2022-10-18T04:47:36;100078.72;;;22.16;37.82
42691;BME280;28306;55.744;37.578;2022-10-18T04:50:02;100056.81;;;22.05;37.87
42691;BME280;28306;55.744;37.578;2022-10-18T04:52:29;100071.41;;;22.16;37.95
42691;BME280;28306;55.744;37.578;2022-10-18T04:54:54;100049.63;;;21.99;37.91
42691;BME280;28306;55.744;37.578;2022-10-18T04:57:20;100043.97;;;22.01;37.79
42691;BME280;28306;55.744;37.578;2022-10-18T04:59:45;100073.06;;;22.17;37.96
42691;BME280;28306;55.744;37.578;2022-10-18T05:02:11;100067.97;;;22.21;37.85
42691;BME280;28306;55.744;37.578;2022-10-18T05:04:37;100060.47;;;22.23;37.73
42691;BME280;28306;55.744;37.578;2022-10-18T05:07:02;100029.59;;;22.00;37.75
42691;BME280;28306;55.744;37.578;2022-10-18T05:09:30;100038.19;;;22.09;37.71
42691;BME280;28306;55.744;37.578;2022-10-18T05:11:55;100063.50;;;22.26;37.71
42691;BME280;28306;55.744;37.578;2022-10-18T05:14:21;100074.94;;;22.28;37.59
42691;BME280;28306;55.744;37.578;2022-10-18T05:16:46;100047.25;;;22.14;37.72
42691;BME280;28306;55.744;37.578;2022-10-18T05:19:12;100037.97;;;22.10;37.69
42691;BME280;28306;55.744;37.578;2022-10-18T05:21:38;100069.91;;;22.32;37.66
42691;BME280;28306;55.744;37.578;2022-10-18T05:24:03;100078.63;;;22.34;37.44
42691;BME280;28306;55.744;37.578;2022-10-18T05:26:29;100078.63;;;22.34;37.55
42691;BME280;28306;55.744;37.578;2022-10-18T05:28:55;100088.66;;;22.34;37.66
42691;BME280;28306;55.744;37.578;2022-10-18T05:31:20;100076.81;;;22.28;37.59
42691;BME280;28306;55.744;37.578;2022-10-18T05:33:46;100068.59;;;22.23;37.68
42691;BME280;28306;55.744;37.578;2022-10-18T05:36:11;100080.84;;;22.37;37.60
42691;BME280;28306;55.744;37.578;2022-10-18T05:38:41;100080.03;;;22.37;37.49
42691;BME280;28306;55.744;37.578;2022-10-18T05:41:08;100080.84;;;22.37;37.56
42691;BME280;28306;55.744;37.578;2022-10-18T05:43:34;100066.59;;;22.30;37.35
42691;BME280;28306;55.744;37.578;2022-10-18T05:45:59;100074.84;;;22.35;37.69
42691;BME280;28306;55.744;37.578;2022-10-18T05:48:25;100074.25;;;22.33;37.59
42691;BME280;28306;55.744;37.578;2022-10-18T05:50:51;100073.06;;;22.29;37.59
42691;BME280;28306;55.744;37.578;2022-10-18T05:53:16;100065.97;;;22.28;37.89
42691;BME280;28306;55.744;37.578;2022-10-18T05:55:42;100055.38;;;22.26;37.60
42691;BME280;28306;55.744;37.578;2022-10-18T05:58:08;100072.72;;;22.37;37.57
42691;BME280;28306;55.744;37.578;2022-10-18T06:00:33;100067.31;;;22.37;37.48
42691;BME280;28306;55.744;37.578;2022-10-18T06:03:00;100051.38;;;22.29;37.59
42691;BME280;28306;55.744;37.578;2022-10-18T06:05:26;100045.34;;;22.27;37.53
42691;BME280;28306;55.744;37.578;2022-10-18T06:07:51;100045.84;;;22.36;37.48
42691;BME280;28306;55.744;37.578;2022-10-18T06:10:17;100046.19;;;22.39;37.49
42691;BME280;28306;55.744;37.578;2022-10-18T06:12:43;100025.22;;;22.35;37.34
42691;BME280;28306;55.744;37.578;2022-10-18T06:15:09;100021.13;;;22.32;37.57
42691;BME280;28306;55.744;37.578;2022-10-18T06:17:34;100006.72;;;22.31;37.68
42691;BME280;28306;55.744;37.578;2022-10-18T06:20:00;100016.38;;;22.39;37.55
42691;BME280;28306;55.744;37.578;2022-10-18T06:22:25;100014.13;;;22.36;37.42
42691;BME280;28306;55.744;37.578;2022-10-18T06:24:51;100001.91;;;22.34;37.35
42691;BME280;28306;55.744;37.578;2022-10-18T06:27:17;100003.16;;;22.43;37.32
42691;BME280;28306;55.744;37.578;2022-10-18T06:29:42;99996.34;;;22.40;37.51
42691;BME280;28306;55.744;37.578;2022-10-18T06:32:08;99966.41;;;22.23;37.43
42691;BME280;28306;55.744;37.578;2022-10-18T06:34:34;99985.00;;;22.43;37.32
42691;BME280;28306;55.744;37.578;2022-10-18T06:36:59;99959.81;;;22.31;37.25
42691;BME280;28306;55.744;37.578;2022-10-18T06:39:25;99961.66;;;22.42;37.51
42691;BME280;28306;55.744;37.578;2022-10-18T06:41:52;99950.81;;;22.42;37.32
42691;BME280;28306;55.744;37.578;2022-10-18T06:44:19;99938.94;;;22.43;37.29
42691;BME280;28306;55.744;37.578;2022-10-18T06:46:46;99915.56;;;22.42;37.33
42691;BME280;28306;55.744;37.578;2022-10-18T06:49:13;99882.38;;;22.35;37.21
42691;BME280;28306;55.744;37.578;2022-10-18T06:51:40;99869.72;;;22.41;37.32
42691;BME280;28306;55.744;37.578;2022-10-18T06:54:05;99881.38;;;22.41;37.26
42691;BME280;28306;55.744;37.578;2022-10-18T06:56:31;99876.97;;;22.35;37.45
42691;BME280;28306;55.744;37.578;2022-10-18T06:58:57;99877.69;;;22.30;37.40
42691;BME280;28306;55.744;37.578;2022-10-18T07:01:22;99878.50;;;22.31;37.47
42691;BME280;28306;55.744;37.578;2022-10-18T07:03:51;99864.06;;;22.42;37.47
42691;BME280;28306;55.744;37.578;2022-10-18T07:06:18;99857.50;;;22.38;37.28
42691;BME280;28306;55.744;37.578;2022-10-18T07:08:45;99836.63;;;22.39;37.38
42691;BME280;28306;55.744;37.578;2022-10-18T07:11:15;99833.00;;;22.33;37.27
42691;BME280;28306;55.744;37.578;2022-10-18T07:13:41;99828.59;;;22.44;37.37
42691;BME280;28306;55.744;37.578;2022-10-18T07:16:09;99795.25;;;22.43;37.32
42691;BME280;28306;55.744;37.578;2022-10-18T07:18:37;99794.41;;;22.43;37.34
42691;BME280;28306;55.744;37.578;2022-10-18T07:21:06;99804.75;;;22.46;37.22
42691;BME280;28306;55.744;37.578;2022-10-18T07:23:33;99783.66;;;22.48;37.36
42691;BME280;28306;55.744;37.578;2022-10-18T07:25:59;99771.41;;;22.45;37.23
42691;BME280;28306;55.744;37.578;2022-10-18T07:28:26;99753.84;;;22.48;37.17
42691;BME280;28306;55.744;37.578;2022-10-18T07:30:52;99752.50;;;22.50;37.09
42691;BME280;28306;55.744;37.578;2022-10-18T07:33:18;99735.66;;;22.48;37.21
42691;BME280;28306;55.744;37.578;2022-10-18T07:35:45;99712.44;;;22.53;37.07
42691;BME280;28306;55.744;37.578;2022-10-18T07:38:11;99699.94;;;22.52;37.27
42691;BME280;28306;55.744;37.578;2022-10-18T07:40:37;99676.19;;;22.42;37.09
42691;BME280;28306;55.744;37.578;2022-10-18T07:43:03;99663.41;;;22.37;37.20
42691;BME280;28306;55.744;37.578;2022-10-18T07:45:28;99647.94;;;22.38;37.03
42691;BME280;28306;55.744;37.578;2022-10-18T07:47:57;99655.88;;;22.44;36.99
42691;BME280;28306;55.744;37.578;2022-10-18T07:50:23;99656.31;;;22.53;37.13
42691;BME280;28306;55.744;37.578;2022-10-18T07:52:49;99636.25;;;22.54;37.13
42691;BME280;28306;55.744;37.578;2022-10-18T07:55:14;99627.03;;;22.55;37.17
42691;BME280;28306;55.744;37.578;2022-10-18T07:57:40;99617.03;;;22.56;37.12
42691;BME280;28306;55.744;37.578;2022-10-18T08:00:06;99612.41;;;22.56;37.08
42691;BME280;28306;55.744;37.578;2022-10-18T08:02:37;99575.06;;;22.41;37.12
42691;BME280;28306;55.744;37.578;2022-10-18T08:05:02;99581.19;;;22.54;37.14
42691;BME280;28306;55.744;37.578;2022-10-18T08:07:28;99574.22;;;22.58;37.04
42691;BME280;28306;55.744;37.578;2022-10-18T08:09:53;99563.63;;;22.56;37.17
42691;BME280;28306;55.744;37.578;2022-10-18T08:12:19;99543.13;;;22.43;37.08
42691;BME280;28306;55.744;37.578;2022-10-18T08:14:45;99544.06;;;22.54;37.30
42691;BME280;28306;55.744;37.578;2022-10-18T08:17:11;99532.38;;;22.54;37.18
42691;BME280;28306;55.744;37.578;2022-10-18T08:19:36;99496.59;;;22.52;36.96
42691;BME280;28306;55.744;37.578;2022-10-18T08:22:02;99475.09;;;22.45;37.20
42691;BME280;28306;55.744;37.578;2022-10-18T08:24:28;99488.97;;;22.48;37.21
42691;BME280;28306;55.744;37.578;2022-10-18T08:26:53;99441.72;;;22.44;37.17
42691;BME280;28306;55.744;37.578;2022-10-18T08:29:19;99414.75;;;22.55;37.20
42691;BME280;28306;55.744;37.578;2022-10-18T08:31:44;99388.78;;;22.59;37.10
42691;BME280;28306;55.744;37.578;2022-10-18T08:34:10;99371.41;;;22.60;37.08
42691;BME280;28306;55.744;37.578;2022-10-18T08:36:36;99360.56;;;22.60;37.21
42691;BME280;28306;55.744;37.578;2022-10-18T08:39:02;99326.84;;;22.50;37.09
42691;BME280;28306;55.744;37.578;2022-10-18T08:46:44;99273.53;;;22.61;37.14
42691;BME280;28306;55.744;37.578;2022-10-18T08:49:31;99266.25;;;22.62;37.10
42691;BME280;28306;55.744;37.578;2022-10-18T08:52:00;99256.72;;;22.59;37.14
42691;BME280;28306;55.744;37.578;2022-10-18T08:54:36;99281.13;;;22.59;37.37
42691;BME280;28306;55.744;37.578;2022-10-18T08:57:12;99265.66;;;22.60;37.11
42691;BME280;28306;55.744;37.578;2022-10-18T08:59:40;99262.41;;;22.58;37.30
42691;BME280;28306;55.744;37.578;2022-10-18T09:07:18;99313.09;;;22.57;37.62
42691;BME280;28306;55.744;37.578;2022-10-18T09:09:59;99319.34;;;22.58;37.47
42691;BME280;28306;55.744;37.578;2022-10-18T09:15:31;99311.75;;;22.60;37.43
42691;BME280;28306;55.744;37.578;2022-10-18T09:18:13;99300.38;;;22.58;37.57
42691;BME280;28306;55.744;37.578;2022-10-18T09:20:47;99298.16;;;22.55;37.64
42691;BME280;28306;55.744;37.578;2022-10-18T09:25:56;99268.09;;;22.56;37.73
42691;BME280;28306;55.744;37.578;2022-10-18T09:28:49;99257.50;;;22.55;37.62
42691;BME280;28306;55.744;37.578;2022-10-18T09:31:44;99267.56;;;22.59;37.43
42691;BME280;28306;55.744;37.578;2022-10-18T09:34:12;99253.97;;;22.54;37.64
42691;BME280;28306;55.744;37.578;2022-10-18T09:36:43;99235.00;;;22.54;37.69
42691;BME280;28306;55.744;37.578;2022-10-18T09:39:20;99223.53;;;22.47;37.71
42691;BME280;28306;55.744;37.578;2022-10-18T09:44:31;99241.59;;;22.63;37.67
42691;BME280;28306;55.744;37.578;2022-10-18T09:47:02;99222.28;;;22.60;37.58
42691;BME280;28306;55.744;37.578;2022-10-18T09:49:36;99220.97;;;22.62;37.95
42691;BME280;28306;55.744;37.578;2022-10-18T09:52:07;99226.09;;;22.59;38.23
42691;BME280;28306;55.744;37.578;2022-10-18T09:54:52;99200.56;;;22.55;38.45
42691;BME280;28306;55.744;37.578;2022-10-18T09:57:32;99204.44;;;22.64;38.18
42691;BME280;28306;55.744;37.578;2022-10-18T10:00:02;99200.91;;;22.63;38.22
42691;BME280;28306;55.744;37.578;2022-10-18T10:02:30;99176.16;;;22.55;38.10
42691;BME280;28306;55.744;37.578;2022-10-18T10:04:56;99192.25;;;22.66;38.41
42691;BME280;28306;55.744;37.578;2022-10-18T10:07:40;99179.47;;;22.62;38.30
42691;BME280;28306;55.744;37.578;2022-10-18T10:10:26;99178.44;;;22.68;38.24
42691;BME280;28306;55.744;37.578;2022-10-18T10:13:15;99174.63;;;22.69;38.17
42691;BME280;28306;55.744;37.578;2022-10-18T10:15:50;99164.31;;;22.66;38.25
42691;BME280;28306;55.744;37.578;2022-10-18T10:18:20;99141.47;;;22.57;38.34
42691;BME280;28306;55.744;37.578;2022-10-18T10:20:50;99152.09;;;22.63;38.32
42691;BME280;28306;55.744;37.578;2022-10-18T10:25:57;99143.72;;;22.70;38.29
42691;BME280;28306;55.744;37.578;2022-10-18T10:28:33;99138.56;;;22.68;38.50
42691;BME280;28306;55.744;37.578;2022-10-18T10:36:49;99114.94;;;22.59;38.28
42691;BME280;28306;55.744;37.578;2022-10-18T10:39:18;99125.53;;;22.71;38.35
42691;BME280;28306;55.744;37.578;2022-10-18T10:41:54;99117.41;;;22.71;38.46
42691;BME280;28306;55.744;37.578;2022-10-18T10:44:29;99110.38;;;22.70;38.43
42691;BME280;28306;55.744;37.578;2022-10-18T10:46:56;99116.59;;;22.70;38.33
42691;BME280;28306;55.744;37.578;2022-10-18T10:52:04;99094.31;;;22.63;38.42
42691;BME280;28306;55.744;37.578;2022-10-18T10:54:30;99098.19;;;22.77;38.39
42691;BME280;28306;55.744;37.578;2022-10-18T10:57:15;99099.81;;;22.78;38.54
42691;BME280;28306;55.744;37.578;2022-10-18T11:04:39;99074.56;;;22.73;38.63
42691;BME280;28306;55.744;37.578;2022-10-18T11:15:39;99064.06;;;22.86;38.39
42691;BME280;28306;55.744;37.578;2022-10-18T11:18:09;99056.44;;;22.83;38.60
42691;BME280;28306;55.744;37.578;2022-10-18T11:23:19;99044.75;;;22.73;38.36
42691;BME280;28306;55.744;37.578;2022-10-18T11:32:02;99070.00;;;22.83;38.65
42691;BME280;28306;55.744;37.578;2022-10-18T11:45:43;99064.03;;;22.76;38.96
42691;BME280;28306;55.744;37.578;2022-10-18T11:48:39;99057.50;;;22.77;38.48
42691;BME280;28306;55.744;37.578;2022-10-18T11:56:41;99070.53;;;22.80;38.82
42691;BME280;28306;55.744;37.578;2022-10-18T11:59:34;99067.28;;;22.83;39.33
42691;BME280;28306;55.744;37.578;2022-10-18T12:04:50;99048.03;;;22.80;38.95
42691;BME280;28306;55.744;37.578;2022-10-18T12:07:18;99042.03;;;22.73;39.06
42691;BME280;28306;55.744;37.578;2022-10-18T12:09:47;99054.56;;;22.84;38.74
42691;BME280;28306;55.744;37.578;2022-10-18T12:14:53;99040.41;;;22.72;39.03
42691;BME280;28306;55.744;37.578;2022-10-18T12:17:42;99054.56;;;22.84;38.79
42691;BME280;28306;55.744;37.578;2022-10-18T12:20:30;99044.22;;;22.76;38.86
42691;BME280;28306;55.744;37.578;2022-10-18T12:23:05;99064.63;;;22.89;38.90
42691;BME280;28306;55.744;37.578;2022-10-18T12:25:36;99063.25;;;22.86;38.75
42691;BME280;28306;55.744;37.578;2022-10-18T12:28:16;99064.88;;;22.87;38.92
42691;BME280;28306;55.744;37.578;2022-10-18T12:33:18;99068.13;;;22.89;38.71
42691;BME280;28306;55.744;37.578;2022-10-18T12:36:28;99065.69;;;22.93;38.77
42691;BME280;28306;55.744;37.578;2022-10-18T12:39:00;99049.94;;;22.84;38.94
42691;BME280;28306;55.744;37.578;2022-10-18T12:41:29;99049.09;;;22.79;38.74
42691;BME280;28306;55.744;37.578;2022-10-18T12:44:20;99070.06;;;22.94;38.69
42691;BME280;28306;55.744;37.578;2022-10-18T12:46:53;99064.91;;;22.92;38.69
42691;BME280;28306;55.744;37.578;2022-10-18T12:49:34;99062.44;;;22.91;38.91
42691;BME280;28306;55.744;37.578;2022-10-18T12:52:21;99050.19;;;22.78;38.88
42691;BME280;28306;55.744;37.578;2022-10-18T13:20:17;99068.19;;;22.99;38.78
42691;BME280;28306;55.744;37.578;2022-10-18T13:33:31;99073.88;;;22.98;38.92
42691;BME280;28306;55.744;37.578;2022-10-18T13:36:01;99093.66;;;22.93;39.10
42691;BME280;28306;55.744;37.578;2022-10-18T13:38:58;99042.88;;;22.73;39.19
42691;BME280;28306;55.744;37.578;2022-10-18T13:41:31;99080.09;;;22.93;39.30
42691;BME280;28306;55.744;37.578;2022-10-18T13:44:35;99102.34;;;22.95;39.22
42691;BME280;28306;55.744;37.578;2022-10-18T13:55:32;99110.22;;;22.97;39.24
42691;BME280;28306;55.744;37.578;2022-10-18T14:01:47;99127.81;;;22.94;39.25
42691;BME280;28306;55.744;37.578;2022-10-18T14:04:41;99125.38;;;22.93;39.31
42691;BME280;28306;55.744;37.578;2022-10-18T14:07:09;99122.94;;;22.91;39.22
42691;BME280;28306;55.744;37.578;2022-10-18T14:09:47;99125.38;;;22.93;39.31
42691;BME280;28306;55.744;37.578;2022-10-18T14:12:40;99125.94;;;22.95;39.25
42691;BME280;28306;55.744;37.578;2022-10-18T14:20:27;99127.59;;;23.01;39.12
42691;BME280;28306;55.744;37.578;2022-10-18T14:23:16;99123.53;;;23.03;39.13
42691;BME280;28306;55.744;37.578;2022-10-18T14:25:43;99118.94;;;23.04;38.97
42691;BME280;28306;55.744;37.578;2022-10-18T14:30:56;99133.84;;;23.07;38.98
42691;BME280;28306;55.744;37.578;2022-10-18T14:33:35;99120.00;;;23.03;38.90
42691;BME280;28306;55.744;37.578;2022-10-18T14:36:20;99100.41;;;22.91;39.04
42691;BME280;28306;55.744;37.578;2022-10-18T14:39:15;99109.41;;;23.01;38.86
42691;BME280;28306;55.744;37.578;2022-10-18T14:41:50;99133.09;;;23.11;38.74
42691;BME280;28306;55.744;37.578;2022-10-18T14:44:24;99132.50;;;23.04;38.94
42691;BME280;28306;55.744;37.578;2022-10-18T14:49:19;99131.13;;;23.01;38.78
42691;BME280;28306;55.744;37.578;2022-10-18T14:51:48;99133.03;;;23.06;38.78
42691;BME280;28306;55.744;37.578;2022-10-18T14:54:17;99154.78;;;23.11;38.97
42691;BME280;28306;55.744;37.578;2022-10-18T14:56:44;99142.25;;;23.05;38.84
42691;BME280;28306;55.744;37.578;2022-10-18T14:59:24;99140.91;;;23.02;39.15
42691;BME280;28306;55.744;37.578;2022-10-18T15:04:17;99152.03;;;23.06;38.94
42691;BME280;28306;55.744;37.578;2022-10-18T15:06:43;99167.22;;;23.07;38.88
42691;BME280;28306;55.744;37.578;2022-10-18T15:09:10;99175.13;;;23.09;39.03
42691;BME280;28306;55.744;37.578;2022-10-18T15:11:38;99190.03;;;23.06;39.04
42691;BME280;28306;55.744;37.578;2022-10-18T15:14:13;99175.06;;;22.98;39.16
42691;BME280;28306;55.744;37.578;2022-10-18T15:16:41;99171.53;;;22.98;39.02
42691;BME280;28306;55.744;37.578;2022-10-18T15:21:52;99196.56;;;23.10;39.03
42691;BME280;28306;55.744;37.578;2022-10-18T15:24:39;99205.00;;;23.14;38.90
42691;BME280;28306;55.744;37.578;2022-10-18T15:29:40;99205.53;;;23.11;38.76
42691;BME280;28306;55.744;37.578;2022-10-18T15:32:23;99212.09;;;23.20;38.92
42691;BME280;28306;55.744;37.578;2022-10-18T15:34:50;99199.28;;;23.10;38.79
42691;BME280;28306;55.744;37.578;2022-10-18T15:37:26;99220.53;;;23.24;38.85
42691;BME280;28306;55.744;37.578;2022-10-18T15:42:59;99238.19;;;23.26;38.81
42691;BME280;28306;55.744;37.578;2022-10-18T15:45:28;99244.41;;;23.27;38.77
42691;BME280;28306;55.744;37.578;2022-10-18T15:56:12;99260.16;;;23.25;38.87
42691;BME280;28306;55.744;37.578;2022-10-18T15:58:51;99259.31;;;23.24;38.74
42691;BME280;28306;55.744;37.578;2022-10-18T16:01:51;99264.22;;;23.22;38.81
42691;BME280;28306;55.744;37.578;2022-10-18T16:04:19;99261.22;;;23.18;38.65